Piney Creek, North Carolina
Current Conditions -  °F | °C
As of 10:55 AM on Thursday 23 Oct 2014 (Local Time) from KGEV Reporting Station
Clear Clear  
Wind Chill: 40°   Ceiling: Unl
Heat Index: 46°   Visibility: 10mi
Dew Point: 32°   Wind: 13mph
Humidity: 58%   Direction: 320°NW
Pressure: 30.13"   Gusts: 16mph
Location:  36.55°N, 81.29°W
Report Text: KGEV 231455Z AUTO 32011G14KT 10SM CLR 08/00 A3013 RMK AO2 T00780001
Loading
Personal Weather Stations






























Interactive Weather Map
Tropical Storm Tracking
New forecast layout! Learn more

10-Day Weather Forecast

Advertisements
Track Severe Weather on mobile